York, NE (68467)

2:23 AM CDT on August 05, 2015 (GMT -0500)
SLS - SW York, NE | | Change Station
CLOSE
Current Station
Personal Weather Station
Location: York, NE
Elevation: 1647 ft
Nearby Weather Stations

Elev 1647 ft 40.86 °N, 97.61 °W | Updated 1 minute ago

Light Rain
Light Rain
66.5 °F
Feels Like 66.5 °F
N
0.0
Wind Variable Wind from NW
Gusts 0.0 mph

Today
High -- | Low -- °F
--% Chance of Precip.
Yesterday
High -- | Low -- °F
Precip. -- in
6:30 AM 8:41 PM
Waning Gibbous, 70% visible
Pressure 29.99 in
Visibility 5.0 miles
Clouds Few 4400 ft
Mostly Cloudy 9500 ft
Overcast 12000 ft
Dew Point 65 °F
Humidity 96%
Rainfall 0.02 in
Snow Depth Not available.
UV 0 out of 12
Pollen 7.70 out of 12
Air Quality Not available.
Flu Activity Not available.
METAR KJYR 050715Z AUTO 25003KT 5SM -RA FEW044 BKN095 OVC120 19/19 A2999 RMK AO2

More Conditions Fewer Conditions

Pressure 29.99 in
Visibility 5.0 miles
Clouds Few 4400 ft
Mostly Cloudy 9500 ft
Overcast 12000 ft
Dew Point 65 °F
Humidity 96%
Rainfall 0.02 in
Snow Depth Not available.
UV 0 out of 12
Pollen 7.70 out of 12
Air Quality Not available.
Flu Activity Not available.
METAR KJYR 050715Z AUTO 25003KT 5SM -RA FEW044 BKN095 OVC120 19/19 A2999 RMK AO2

More Conditions Fewer Conditions

10-Day Weather Forecast

×

Almanac

Astronomy

Aug. 05, 2015 Rise Set
Actual Time
Civil Twilight
Nautical Twilight
Astronomical Twilight
Moon
Length of Visible Light
Length of Day
Tomorrow will be .
, % of the Moon is Illuminated

Today's Extremes

State Highs State Lows

Community

WunderPhotos

Upload Photos

1,844,105 photos uploaded!

WunderBlogs® & News

Nearby

Air Quality

  Air Quality AQ Index Pollutant
Not available.

Snow Depth

Station Depth Elevation

Earthquake Activity

City Distance Mag. Time & Date
Minimum magnitude displayed is 2.5.

Coastal Water Temperatures

Place Temperature

Stations

Nearby Weather Stations

Station Location Temp. Windchill Dew Point Humidity Wind Precip. Elev Updated Type